Kings Island, Ohio
Current Conditions -  °F | °C
As of 12:53 PM on Saturday 22 Nov 2014 (Local Time) from KHAO Reporting Station
Broken Clouds Broken Clouds  
Wind Chill: 57°   Ceiling: 10000
Heat Index: 57°   Visibility: 10mi
Dew Point: 39°   Wind: 12mph
Humidity: 51%   Direction: 220°SW
Pressure: 30.18"   Gusts: 17mph
Location:  39.3564°N, 84.2478°W
Report Text: KHAO 221753Z AUTO 22010G15KT 10SM FEW055 BKN100 14/04 A3018 RMK AO2 SLP225 60002 T01390039 10139 20000 58031
Loading
Personal Weather Stations






























Interactive Weather Map New forecast layout! Learn more

10-Day Weather Forecast

Advertisements
Track Severe Weather on mobile